createdAt,value
2018-11-13T00:00:01.989Z,37.57
2018-11-13T00:02:30.246Z,38.60
2018-11-13T00:04:58.579Z,40.20
2018-11-13T00:07:26.857Z,41.00
2018-11-13T00:09:55.174Z,47.53
2018-11-13T00:12:23.429Z,51.53
2018-11-13T00:14:51.786Z,46.67
2018-11-13T00:17:20.103Z,41.43
2018-11-13T00:19:48.401Z,43.63
2018-11-13T00:22:16.683Z,47.17
2018-11-13T00:24:44.955Z,43.63
2018-11-13T00:27:13.256Z,45.63
2018-11-13T00:29:41.516Z,53.00
2018-11-13T00:32:09.817Z,51.77
2018-11-13T00:34:38.123Z,48.60
2018-11-13T00:37:07.477Z,51.53
2018-11-13T00:39:35.793Z,46.23
2018-11-13T00:42:04.162Z,48.33
2018-11-13T00:44:32.391Z,55.30
2018-11-13T00:47:00.676Z,46.73
2018-11-13T00:49:29.061Z,50.53
2018-11-13T00:51:57.449Z,46.77
2018-11-13T00:54:25.695Z,48.50
2018-11-13T00:56:54.093Z,49.30
2018-11-13T00:59:22.389Z,50.47
2018-11-13T01:01:50.658Z,53.87
2018-11-13T01:04:18.933Z,52.97
2018-11-13T01:06:47.250Z,48.57
2018-11-13T01:09:15.527Z,44.77
2018-11-13T01:11:43.790Z,51.53
2018-11-13T01:14:12.114Z,51.17
2018-11-13T01:16:40.401Z,45.37
2018-11-13T01:19:08.660Z,50.70
2018-11-13T01:21:36.923Z,49.67
2018-11-13T01:24:05.711Z,47.97
2018-11-13T01:26:35.164Z,49.67
2018-11-13T01:29:03.429Z,46.20
2018-11-13T01:31:31.688Z,50.70
2018-11-13T01:33:59.983Z,50.37
2018-11-13T01:36:28.323Z,43.90
2018-11-13T01:38:56.626Z,48.90
2018-11-13T01:41:24.906Z,48.43
2018-11-13T01:43:53.169Z,50.47
2018-11-13T01:46:21.493Z,47.13
2018-11-13T01:48:49.778Z,50.17
2018-11-13T01:51:18.066Z,52.77
2018-11-13T01:53:46.302Z,51.13
2018-11-13T01:56:15.578Z,45.43
2018-11-13T01:58:43.932Z,46.17
2018-11-13T02:01:12.154Z,41.60
2018-11-13T02:03:40.441Z,49.17
2018-11-13T02:06:08.712Z,46.23
2018-11-13T02:08:36.979Z,46.20
2018-11-13T02:11:05.470Z,44.90
2018-11-13T02:13:33.801Z,45.23
2018-11-13T02:16:02.105Z,45.83
2018-11-13T02:18:30.533Z,46.13
2018-11-13T02:20:58.801Z,47.67
2018-11-13T02:23:27.077Z,47.50
2018-11-13T02:25:55.350Z,45.00
2018-11-13T02:28:23.610Z,48.37
2018-11-13T02:30:51.830Z,44.93
2018-11-13T02:33:20.147Z,48.23
2018-11-13T02:35:48.378Z,52.37
2018-11-13T02:38:16.630Z,50.47
2018-11-13T02:40:44.927Z,51.17
2018-11-13T02:43:13.204Z,51.53
2018-11-13T02:45:41.575Z,47.87
2018-11-13T02:48:09.843Z,48.53
2018-11-13T02:50:38.129Z,47.27
2018-11-13T02:53:06.417Z,45.03
2018-11-13T02:55:34.686Z,45.67
2018-11-13T02:58:02.977Z,44.40
2018-11-13T03:00:31.338Z,48.60
2018-11-13T03:02:59.618Z,47.70
2018-11-13T03:05:27.958Z,45.47
2018-11-13T03:07:56.206Z,42.37
2018-11-13T03:10:24.557Z,43.73
2018-11-13T03:12:52.813Z,42.07
2018-11-13T03:15:21.422Z,41.33
2018-11-13T03:17:49.751Z,41.33
2018-11-13T03:20:19.170Z,43.00
2018-11-13T03:22:47.985Z,37.80
2018-11-13T03:25:17.398Z,44.57
2018-11-13T03:27:45.762Z,43.73
2018-11-13T03:30:20.331Z,44.40
2018-11-13T03:32:48.704Z,43.53
2018-11-13T03:35:16.893Z,42.50
2018-11-13T03:37:45.211Z,41.47
2018-11-13T03:40:14.174Z,42.10
2018-11-13T03:42:43.133Z,44.27
2018-11-13T03:45:12.429Z,42.13
2018-11-13T03:47:40.751Z,45.87
2018-11-13T03:50:11.326Z,43.83
2018-11-13T03:52:39.964Z,46.37
2018-11-13T03:55:09.057Z,50.67
2018-11-13T03:57:37.643Z,44.00
2018-11-13T04:00:08.028Z,46.60
2018-11-13T04:02:36.274Z,48.77
2018-11-13T04:05:05.709Z,46.53
2018-11-13T04:07:33.998Z,43.87
2018-11-13T04:10:02.340Z,49.27
2018-11-13T04:12:30.587Z,49.27
2018-11-13T04:14:58.872Z,51.53
2018-11-13T04:17:27.157Z,47.93
2018-11-13T04:19:55.390Z,56.40
2018-11-13T04:22:24.351Z,50.33
2018-11-13T04:24:52.621Z,45.07
2018-11-13T04:27:21.014Z,46.80
2018-11-13T04:29:49.377Z,47.47
2018-11-13T04:32:17.619Z,49.80
2018-11-13T04:34:45.931Z,46.53
2018-11-13T04:37:14.881Z,50.73
2018-11-13T04:39:43.115Z,44.27
2018-11-13T04:42:11.370Z,44.47
2018-11-13T04:44:40.182Z,45.20
2018-11-13T04:47:08.495Z,43.60
2018-11-13T04:49:36.822Z,44.53
2018-11-13T04:52:05.513Z,42.80
2018-11-13T04:54:33.772Z,40.50
2018-11-13T04:57:02.029Z,41.27
2018-11-13T04:59:30.394Z,36.07
2018-11-13T05:01:58.666Z,33.43
2018-11-13T05:04:26.915Z,33.00
2018-11-13T05:06:55.205Z,34.87
2018-11-13T05:09:23.435Z,33.07
2018-11-13T05:11:51.773Z,32.57
2018-11-13T05:14:20.058Z,35.83
2018-11-13T05:16:48.389Z,28.53
2018-11-13T05:19:16.686Z,27.97
2018-11-13T05:21:44.953Z,24.17
2018-11-13T05:24:13.220Z,25.23
2018-11-13T05:26:41.529Z,25.13
2018-11-13T05:29:09.840Z,20.60
2018-11-13T05:31:38.089Z,21.57
2018-11-13T05:34:06.854Z,17.90
2018-11-13T05:36:35.218Z,20.10
2018-11-13T05:39:04.741Z,19.43
2018-11-13T05:41:33.730Z,16.73
2018-11-13T05:44:01.992Z,15.80
2018-11-13T05:46:30.273Z,16.37
2018-11-13T05:48:58.590Z,16.07
2018-11-13T05:51:26.879Z,14.13
2018-11-13T05:53:55.149Z,17.07
2018-11-13T05:56:23.449Z,13.73
2018-11-13T05:58:51.918Z,15.97
2018-11-13T06:01:20.196Z,14.43
2018-11-13T06:03:48.509Z,17.33
2018-11-13T06:06:16.872Z,16.30
2018-11-13T06:08:45.206Z,13.43
2018-11-13T06:11:13.485Z,17.33
2018-11-13T06:13:41.737Z,17.07
2018-11-13T06:16:10.010Z,12.93
2018-11-13T06:18:38.330Z,12.90
2018-11-13T06:21:06.627Z,14.77
2018-11-13T06:23:34.903Z,15.78
2018-11-13T06:26:03.167Z,9.43
2018-11-13T06:28:31.433Z,9.53
2018-11-13T06:30:59.689Z,12.47
2018-11-13T06:33:27.975Z,14.13
2018-11-13T06:35:56.285Z,10.27
2018-11-13T06:38:24.621Z,13.55
2018-11-13T06:40:53.353Z,12.33
2018-11-13T06:43:21.614Z,15.00
2018-11-13T06:45:49.866Z,11.10
2018-11-13T06:48:18.167Z,9.53
2018-11-13T06:50:46.435Z,11.93
2018-11-13T06:53:14.704Z,10.27
2018-11-13T06:55:45.961Z,11.43
2018-11-13T06:58:14.217Z,10.37
2018-11-13T07:00:42.569Z,10.00
2018-11-13T07:03:10.837Z,11.57
2018-11-13T07:05:39.117Z,9.70
2018-11-13T07:08:07.367Z,11.20
2018-11-13T07:10:35.743Z,11.07
2018-11-13T07:13:04.074Z,13.73
2018-11-13T07:15:32.715Z,9.60
2018-11-13T07:18:02.299Z,14.60
2018-11-13T07:20:31.928Z,13.30
2018-11-13T07:23:00.189Z,9.70
2018-11-13T07:25:28.521Z,11.60
2018-11-13T07:27:56.754Z,8.57
2018-11-13T07:30:25.770Z,10.13
2018-11-13T07:32:54.030Z,16.60
2018-11-13T07:35:23.231Z,9.53
2018-11-13T07:37:52.978Z,8.50
2018-11-13T07:40:21.591Z,9.73
2018-11-13T07:42:54.080Z,10.50
2018-11-13T07:45:22.342Z,7.37
2018-11-13T07:47:51.033Z,6.07
2018-11-13T07:50:19.146Z,9.10
2018-11-13T07:52:47.425Z,8.20
2018-11-13T07:55:16.436Z,10.10
2018-11-13T07:57:44.888Z,5.07
2018-11-13T08:00:15.176Z,9.07
2018-11-13T08:02:44.618Z,4.67
2018-11-13T08:05:12.881Z,5.63
2018-11-13T08:07:41.158Z,6.03
2018-11-13T08:10:10.637Z,6.93
2018-11-13T08:12:38.946Z,6.93
2018-11-13T08:15:08.764Z,6.63
2018-11-13T08:17:37.122Z,8.53
2018-11-13T08:20:07.057Z,7.73
2018-11-13T08:22:35.316Z,7.30
2018-11-13T08:25:03.666Z,6.03
2018-11-13T08:27:31.925Z,6.23
2018-11-13T08:30:00.266Z,6.87
2018-11-13T08:32:28.695Z,8.93
2018-11-13T08:34:57.069Z,6.80
2018-11-13T08:37:25.210Z,7.50
2018-11-13T08:39:53.466Z,5.33
2018-11-13T08:42:21.718Z,8.20
2018-11-13T08:44:50.011Z,9.00
2018-11-13T08:47:18.355Z,7.40
2018-11-13T08:49:46.597Z,7.10
2018-11-13T08:58:00.024Z,7.53
2018-11-13T09:00:28.721Z,7.57
2018-11-13T09:02:57.034Z,9.77
2018-11-13T09:05:25.718Z,7.43
2018-11-13T09:07:53.991Z,7.30
2018-11-13T09:10:22.265Z,8.90
2018-11-13T09:12:50.526Z,6.70
2018-11-13T09:15:20.304Z,6.97
2018-11-13T09:17:48.593Z,9.40
2018-11-13T09:20:18.114Z,6.50
2018-11-13T09:22:46.522Z,8.70
2018-11-13T09:25:16.729Z,10.70
2018-11-13T09:27:45.019Z,7.57
2018-11-13T09:30:15.312Z,7.53
2018-11-13T09:32:43.807Z,9.00
2018-11-13T09:35:13.373Z,9.70
2018-11-13T09:37:41.934Z,10.07
2018-11-13T09:40:12.982Z,10.00
2018-11-13T09:42:41.835Z,9.43
2018-11-13T09:45:16.033Z,8.50
2018-11-13T09:47:44.510Z,6.10
2018-11-13T09:50:14.151Z,9.67
2018-11-13T09:52:44.465Z,7.07
2018-11-13T09:55:14.267Z,9.37
2018-11-13T09:57:42.588Z,8.17
2018-11-13T10:00:20.003Z,10.33
2018-11-13T10:02:50.229Z,8.17
2018-11-13T10:05:19.157Z,7.63
2018-11-13T10:07:47.742Z,10.13
2018-11-13T10:10:16.023Z,8.57
2018-11-13T10:12:45.434Z,8.67
2018-11-13T10:15:15.658Z,8.57
2018-11-13T10:17:44.269Z,7.23
2018-11-13T10:20:13.667Z,6.00
2018-11-13T10:22:42.962Z,9.40
2018-11-13T10:25:11.837Z,10.70
2018-11-13T10:27:40.636Z,6.50
2018-11-13T10:30:12.406Z,7.20
2018-11-13T10:32:41.128Z,6.37
2018-11-13T10:37:34.590Z,7.63
2018-11-13T10:40:02.916Z,9.17
2018-11-13T10:42:31.289Z,15.23
2018-11-13T10:44:59.561Z,11.03
2018-11-13T10:47:28.614Z,8.47
2018-11-13T10:49:56.838Z,9.93
2018-11-13T10:52:25.120Z,7.43
2018-11-13T10:54:53.401Z,5.40
2018-11-13T10:57:21.678Z,8.17
2018-11-13T10:59:49.984Z,8.03
2018-11-13T11:02:23.861Z,8.83
2018-11-13T11:04:52.042Z,10.07
2018-11-13T11:07:20.804Z,8.50
2018-11-13T11:09:49.081Z,6.93
2018-11-13T11:12:17.389Z,7.57
2018-11-13T11:14:45.652Z,10.63
2018-11-13T11:17:14.235Z,7.23
2018-11-13T11:19:42.538Z,5.00
2018-11-13T11:22:10.806Z,5.87
2018-11-13T11:24:39.093Z,10.70
2018-11-13T11:27:07.349Z,6.00
2018-11-13T13:36:22.330Z,12.83
2018-11-13T13:38:50.662Z,7.50
2018-11-13T13:41:18.969Z,8.20
2018-11-13T13:43:47.288Z,7.27
2018-11-13T13:46:20.048Z,6.23
2018-11-13T13:48:48.378Z,6.23
2018-11-13T13:51:16.777Z,7.03
2018-11-13T13:53:45.097Z,9.10
2018-11-13T13:56:13.391Z,7.83
2018-11-13T13:58:41.771Z,8.80
2018-11-13T14:01:10.071Z,6.40
2018-11-13T14:03:38.405Z,7.13
2018-11-13T14:06:06.840Z,4.77
2018-11-13T14:08:35.134Z,14.20
2018-11-13T14:11:03.464Z,12.20
2018-11-13T14:13:31.815Z,6.20
2018-11-13T14:16:00.145Z,7.10
2018-11-13T14:18:28.517Z,13.00
2018-11-13T14:20:56.962Z,15.67
2018-11-13T14:23:25.240Z,9.17
2018-11-13T14:25:53.562Z,7.70
2018-11-13T14:28:21.902Z,7.70
2018-11-13T14:30:50.321Z,6.37
2018-11-13T14:33:18.717Z,17.60
2018-11-13T14:35:47.110Z,22.10
2018-11-13T14:38:15.365Z,23.03
2018-11-13T14:40:45.126Z,15.87
2018-11-13T14:43:13.569Z,6.93
2018-11-13T14:45:42.028Z,5.87
2018-11-13T14:48:11.050Z,4.67
2018-11-13T14:50:40.001Z,5.93
2018-11-13T14:53:08.723Z,6.77
2018-11-13T14:55:38.213Z,8.93
2018-11-13T14:58:07.645Z,4.93
2018-11-13T15:00:36.797Z,8.63
2018-11-13T15:03:06.170Z,5.20
2018-11-13T15:05:34.911Z,11.00
2018-11-13T15:08:04.695Z,10.60
2018-11-13T15:10:42.681Z,5.27
2018-11-13T15:13:11.486Z,6.97
2018-11-13T15:15:39.814Z,7.73
2018-11-13T15:18:08.466Z,6.10
2018-11-13T15:20:36.788Z,8.80
2018-11-13T15:23:06.202Z,7.37
2018-11-13T15:25:34.587Z,7.23
2018-11-13T15:28:03.042Z,4.87
2018-11-13T15:30:33.382Z,7.70
2018-11-13T15:33:03.130Z,7.90
2018-11-13T15:35:31.501Z,7.53
2018-11-13T15:37:59.833Z,7.63
2018-11-13T15:40:34.394Z,10.50
2018-11-13T15:43:02.742Z,7.17
2018-11-13T15:45:31.146Z,9.00
2018-11-13T15:48:00.762Z,4.47
2018-11-13T15:50:30.346Z,6.27
2018-11-13T15:52:58.956Z,5.73
2018-11-13T15:55:27.250Z,7.20
2018-11-13T15:57:56.067Z,7.20
2018-11-13T16:00:26.714Z,8.13
2018-11-13T16:02:55.811Z,7.47
2018-11-13T16:05:35.077Z,8.47
2018-11-13T16:08:04.416Z,9.27
2018-11-13T16:10:32.674Z,6.93
2018-11-13T16:13:01.540Z,6.23
2018-11-13T16:15:30.349Z,10.43
2018-11-13T16:17:59.781Z,8.10
2018-11-13T16:20:28.233Z,7.67
2018-11-13T16:22:56.630Z,8.33
2018-11-13T16:25:25.261Z,5.87
2018-11-13T16:27:53.545Z,6.87
2018-11-13T16:30:24.003Z,10.70
2018-11-13T16:32:52.680Z,7.03
2018-11-13T16:35:22.005Z,5.70
2018-11-13T16:37:50.898Z,8.97
2018-11-13T16:40:23.123Z,6.17
2018-11-13T16:42:51.403Z,9.60
2018-11-13T16:45:20.989Z,9.83
2018-11-13T16:47:49.513Z,8.53
2018-11-13T16:50:21.559Z,6.10
2018-11-13T16:52:49.931Z,10.43
2018-11-13T16:55:23.650Z,13.85
2018-11-13T16:57:52.442Z,9.83
2018-11-13T17:00:21.238Z,10.80
2018-11-13T17:02:50.596Z,11.70
2018-11-13T17:05:19.927Z,9.60
2018-11-13T17:07:48.239Z,7.20
2018-11-13T17:10:20.933Z,5.77
2018-11-13T17:12:49.765Z,8.03
2018-11-13T17:15:19.325Z,10.40
2018-11-13T17:17:48.515Z,8.13
2018-11-13T17:20:16.953Z,10.37
2018-11-13T17:22:46.044Z,7.80
2018-11-13T17:25:15.678Z,8.47
2018-11-13T17:27:44.890Z,8.97
2018-11-13T17:30:19.253Z,8.13
2018-11-13T17:32:46.386Z,8.97
2018-11-13T17:35:15.940Z,7.63
2018-11-13T17:37:44.874Z,10.33
2018-11-13T17:40:15.442Z,12.20
2018-11-13T17:42:44.317Z,10.77
2018-11-13T17:45:15.786Z,7.47
2018-11-13T17:47:44.529Z,8.70
2018-11-13T17:50:21.646Z,9.20
2018-11-13T17:52:50.276Z,5.30
2018-11-13T17:55:19.016Z,14.40
2018-11-13T17:57:49.697Z,9.13
2018-11-13T18:00:22.625Z,11.80
2018-11-13T18:02:51.165Z,11.83
2018-11-13T18:05:20.797Z,10.57
2018-11-13T18:07:49.665Z,8.80
2018-11-13T18:10:17.929Z,9.33
2018-11-13T18:12:46.221Z,9.83
2018-11-13T18:15:26.109Z,8.30
2018-11-13T18:17:54.361Z,16.07
2018-11-13T18:20:24.117Z,16.07
2018-11-13T18:22:52.426Z,10.07
2018-11-13T18:25:20.810Z,11.00
2018-11-13T18:27:50.642Z,9.13
2018-11-13T18:30:21.467Z,10.13
2018-11-13T18:32:50.192Z,8.40
2018-11-13T18:35:20.690Z,9.50
2018-11-13T18:37:49.616Z,7.20
2018-11-13T18:40:18.834Z,7.20
2018-11-13T18:42:48.132Z,12.80
2018-11-13T18:45:21.580Z,10.43
2018-11-13T18:47:52.595Z,8.57
2018-11-13T18:50:29.275Z,11.27
2018-11-13T18:52:57.459Z,10.47
2018-11-13T18:55:26.887Z,6.77
2018-11-13T18:57:55.244Z,12.07
2018-11-13T19:00:24.864Z,13.40
2018-11-13T19:02:53.337Z,10.03
2018-11-13T19:05:22.132Z,9.23
2018-11-13T19:07:50.486Z,9.50
2018-11-13T19:10:25.187Z,11.23
2018-11-13T19:12:54.324Z,16.77
2018-11-13T19:15:22.758Z,11.93
2018-11-13T19:17:51.212Z,11.30
2018-11-13T19:20:20.714Z,12.23
2018-11-13T19:22:49.057Z,12.93
2018-11-13T19:25:19.965Z,12.37
2018-11-13T19:27:48.980Z,13.90
2018-11-13T19:30:18.227Z,15.80
2018-11-13T19:32:46.687Z,12.60
2018-11-13T19:35:15.816Z,14.27
2018-11-13T19:37:44.158Z,10.23
2018-11-13T19:40:15.831Z,11.93
2018-11-13T19:42:45.180Z,13.03
2018-11-13T19:45:13.759Z,11.67
2018-11-13T19:47:42.593Z,10.07
2018-11-13T19:50:13.051Z,17.07
2018-11-13T19:52:42.461Z,14.17
2018-11-13T19:55:12.059Z,16.43
2018-11-13T19:57:41.096Z,12.23
2018-11-13T20:00:11.535Z,14.93
2018-11-13T20:02:40.092Z,13.87
2018-11-13T20:05:09.782Z,17.83
2018-11-13T20:07:38.565Z,13.00
2018-11-13T20:10:09.665Z,17.43
2018-11-13T20:12:37.939Z,10.43
2018-11-13T20:15:07.003Z,14.87
2018-11-13T20:17:35.382Z,11.13
2018-11-13T20:20:04.414Z,10.37
2018-11-13T20:22:32.826Z,13.67
2018-11-13T20:25:19.413Z,16.63
2018-11-13T20:27:48.538Z,14.95
2018-11-13T20:30:18.583Z,13.67
2018-11-13T20:32:46.953Z,13.17
2018-11-13T20:35:15.237Z,11.03
2018-11-13T20:37:44.889Z,14.20
2018-11-13T20:40:14.539Z,13.03
2018-11-13T20:42:43.770Z,15.03
2018-11-13T20:45:12.968Z,11.17
2018-11-13T20:47:41.310Z,14.58
2018-11-13T20:50:13.871Z,13.00
2018-11-13T20:52:42.377Z,18.40
2018-11-13T20:55:11.247Z,12.40
2018-11-13T20:57:39.711Z,10.17
2018-11-13T21:00:11.306Z,20.33
2018-11-13T21:02:40.028Z,13.87
2018-11-13T21:05:09.442Z,15.50
2018-11-13T21:07:37.894Z,17.27
2018-11-13T21:10:09.484Z,13.60
2018-11-13T21:12:37.982Z,10.60
2018-11-13T21:15:08.193Z,16.70
2018-11-13T21:17:36.777Z,11.17
2018-11-13T21:20:06.422Z,15.50
2018-11-13T21:22:35.327Z,16.20
2018-11-13T21:25:03.858Z,23.00
2018-11-13T21:27:32.613Z,13.40
2018-11-13T21:30:00.981Z,13.10
2018-11-13T21:32:29.262Z,12.63
2018-11-13T21:34:57.546Z,18.30
2018-11-13T21:37:25.822Z,9.93
2018-11-13T21:39:54.063Z,13.50
2018-11-13T21:42:22.313Z,9.43
2018-11-13T21:44:50.590Z,11.80
2018-11-13T21:47:18.857Z,12.77
2018-11-13T21:49:47.150Z,16.57
2018-11-13T21:52:15.493Z,13.77
2018-11-13T21:54:43.746Z,13.70
2018-11-13T21:57:12.022Z,10.47
2018-11-13T21:59:40.299Z,10.63
2018-11-13T22:02:08.853Z,10.47
2018-11-13T22:04:37.198Z,14.43
2018-11-13T22:07:05.554Z,11.23
2018-11-13T22:09:33.805Z,19.83
2018-11-13T22:12:02.141Z,15.43
2018-11-13T22:14:30.409Z,14.23
2018-11-13T22:16:58.694Z,11.47
2018-11-13T22:19:26.969Z,14.57
2018-11-13T22:21:55.229Z,18.73
2018-11-13T22:24:23.602Z,13.73
2018-11-13T22:26:51.948Z,15.53
2018-11-13T22:29:20.182Z,21.50
2018-11-13T22:31:48.482Z,17.80
2018-11-13T22:34:16.820Z,18.13
2018-11-13T22:36:45.107Z,14.63
2018-11-13T22:39:13.394Z,17.57
2018-11-13T22:41:41.699Z,13.77
2018-11-13T22:44:09.982Z,17.63
2018-11-13T22:46:38.357Z,14.63
2018-11-13T22:49:07.030Z,8.60
2018-11-13T22:51:35.311Z,11.83
2018-11-13T22:54:03.722Z,12.40
2018-11-13T22:56:31.994Z,12.17
2018-11-13T22:59:02.363Z,9.33
2018-11-13T23:01:30.623Z,11.33
2018-11-13T23:03:58.918Z,16.00
2018-11-13T23:06:27.221Z,13.23
2018-11-13T23:08:55.813Z,15.43
2018-11-13T23:11:24.083Z,12.90
2018-11-13T23:13:52.496Z,13.03
2018-11-13T23:16:20.698Z,10.27
2018-11-13T23:18:48.964Z,12.27
2018-11-13T23:21:17.345Z,15.13
2018-11-13T23:23:45.663Z,16.03
2018-11-13T23:26:14.011Z,14.80
2018-11-13T23:28:45.649Z,10.93
2018-11-13T23:31:13.934Z,10.13
2018-11-13T23:33:42.194Z,14.30
2018-11-13T23:36:10.574Z,15.20
2018-11-13T23:38:38.755Z,14.90
2018-11-13T23:41:07.017Z,16.43
2018-11-13T23:43:35.287Z,14.77
2018-11-13T23:46:03.677Z,14.33
2018-11-13T23:48:31.948Z,16.73
2018-11-13T23:51:00.198Z,11.13
2018-11-13T23:53:28.456Z,19.17
2018-11-13T23:55:56.812Z,21.23
2018-11-13T23:58:25.077Z,17.13
